createdAt,value
2018-09-15T00:01:58.871Z,19.67
2018-09-15T00:06:52.550Z,19.64
2018-09-15T00:11:45.579Z,19.62
2018-09-15T00:16:38.657Z,19.68
2018-09-15T00:21:31.713Z,19.78
2018-09-15T00:26:25.487Z,19.83
2018-09-15T00:31:18.490Z,19.88
2018-09-15T00:36:12.014Z,19.86
2018-09-15T00:41:05.534Z,19.86
2018-09-15T00:45:58.681Z,19.65
2018-09-15T00:50:51.883Z,19.74
2018-09-15T00:55:44.905Z,19.71
2018-09-15T01:00:38.695Z,19.67
2018-09-15T01:05:31.691Z,19.67
2018-09-15T01:10:24.719Z,19.71
2018-09-15T01:15:17.851Z,19.65
2018-09-15T01:20:11.289Z,19.70
2018-09-15T01:25:04.663Z,19.57
2018-09-15T01:29:57.783Z,19.68
2018-09-15T01:34:50.779Z,19.73
2018-09-15T01:39:43.868Z,19.84
2018-09-15T01:44:36.851Z,19.86
2018-09-15T01:49:29.934Z,19.99
2018-09-15T01:54:23.086Z,20.11
2018-09-15T01:59:16.418Z,20.11
2018-09-15T02:04:09.935Z,20.06
2018-09-15T02:09:03.936Z,19.97
2018-09-15T02:13:57.644Z,19.81
2018-09-15T02:18:50.718Z,20.00
2018-09-15T02:23:44.127Z,20.25
2018-09-15T02:28:37.134Z,20.17
2018-09-15T02:33:30.213Z,20.01
2018-09-15T02:38:24.302Z,19.84
2018-09-15T02:43:17.303Z,19.53
2018-09-15T02:48:10.481Z,19.56
2018-09-15T02:53:03.761Z,19.69
2018-09-15T02:57:57.286Z,19.79
2018-09-15T03:02:50.467Z,19.77
2018-09-15T03:07:43.582Z,19.51
2018-09-15T03:12:36.841Z,19.12
2018-09-15T03:17:30.050Z,19.17
2018-09-15T03:22:23.811Z,19.19
2018-09-15T03:27:16.907Z,19.10
2018-09-15T03:32:09.899Z,19.32
2018-09-15T03:37:03.016Z,19.31
2018-09-15T03:41:55.999Z,19.37
2018-09-15T03:46:49.079Z,19.46
2018-09-15T03:51:42.230Z,19.24
2018-09-15T03:56:35.304Z,18.86
2018-09-15T04:01:28.401Z,19.13
2018-09-15T04:06:21.446Z,19.02
2018-09-15T04:11:15.104Z,19.01
2018-09-15T04:16:08.320Z,19.19
2018-09-15T04:21:01.344Z,19.39
2018-09-15T04:25:54.267Z,19.24
2018-09-15T04:30:47.593Z,19.28
2018-09-15T04:35:44.159Z,18.98
2018-09-15T04:40:37.291Z,18.85
2018-09-15T04:45:30.626Z,18.99
2018-09-15T04:50:23.908Z,18.97
2018-09-15T04:55:17.364Z,18.86
2018-09-15T05:00:10.351Z,19.04
2018-09-15T05:05:03.530Z,19.03
2018-09-15T05:09:56.686Z,19.34
2018-09-15T05:14:49.739Z,19.60
2018-09-15T05:19:42.964Z,19.79
2018-09-15T05:24:36.416Z,19.87
2018-09-15T05:29:29.504Z,20.04
2018-09-15T05:34:22.934Z,20.33
2018-09-15T05:39:16.084Z,20.41
2018-09-15T05:44:09.219Z,20.44
2018-09-15T05:49:02.423Z,20.49
2018-09-15T05:53:55.747Z,20.74
2018-09-15T05:58:48.963Z,20.93
2018-09-15T06:03:42.218Z,21.10
2018-09-15T06:08:35.316Z,21.37
2018-09-15T06:13:29.179Z,21.55
2018-09-15T06:18:22.242Z,21.77
2018-09-15T06:23:15.475Z,21.99
2018-09-15T06:28:08.663Z,22.07
2018-09-15T06:33:02.101Z,22.17
2018-09-15T06:37:55.315Z,22.27
2018-09-15T06:42:48.456Z,22.22
2018-09-15T06:47:41.469Z,22.15
2018-09-15T06:52:34.883Z,22.36
2018-09-15T06:57:27.931Z,22.37
2018-09-15T07:02:20.972Z,22.13
2018-09-15T07:07:14.200Z,22.09
2018-09-15T07:12:07.358Z,22.24
2018-09-15T07:17:00.816Z,22.30
2018-09-15T07:21:53.823Z,22.41
2018-09-15T07:26:47.002Z,22.42
2018-09-15T07:31:40.943Z,22.62
2018-09-15T07:36:34.383Z,22.75
2018-09-15T07:41:27.967Z,22.89
2018-09-15T07:46:21.349Z,23.06
2018-09-15T07:51:15.458Z,23.19
2018-09-15T07:56:09.942Z,23.43
2018-09-15T08:01:03.009Z,23.66
2018-09-15T08:06:01.000Z,23.82
2018-09-15T08:10:54.146Z,23.95
2018-09-15T08:15:47.286Z,24.00
2018-09-15T08:20:40.421Z,24.23
2018-09-15T08:25:33.564Z,24.37
2018-09-15T08:30:27.164Z,24.62
2018-09-15T08:35:20.287Z,24.74
2018-09-15T08:40:13.382Z,24.94
2018-09-15T08:45:06.603Z,25.07
2018-09-15T08:50:00.289Z,25.21
2018-09-15T08:54:53.483Z,25.34
2018-09-15T08:59:46.553Z,25.61
2018-09-15T09:04:39.671Z,25.95
2018-09-15T09:09:32.698Z,26.38
2018-09-15T09:14:26.119Z,26.60
2018-09-15T09:19:19.155Z,26.94
2018-09-15T09:24:12.177Z,27.05
2018-09-15T09:29:05.266Z,26.85
2018-09-15T09:33:58.502Z,26.89
2018-09-15T09:38:51.622Z,26.93
2018-09-15T09:43:44.825Z,26.95
2018-09-15T09:48:37.906Z,27.09
2018-09-15T09:53:31.060Z,27.08
2018-09-15T09:58:24.042Z,26.94
2018-09-15T10:03:17.096Z,27.08
2018-09-15T10:08:10.534Z,27.07
2018-09-15T10:13:03.675Z,27.11
2018-09-15T10:17:56.799Z,27.26
2018-09-15T10:22:50.031Z,27.19
2018-09-15T10:27:43.227Z,27.29
2018-09-15T10:32:36.846Z,27.22
2018-09-15T10:37:31.040Z,27.43
2018-09-15T10:42:24.188Z,27.61
2018-09-15T10:47:17.309Z,27.72
2018-09-15T10:52:10.344Z,27.62
2018-09-15T10:57:03.752Z,27.36
2018-09-15T11:01:57.240Z,27.47
2018-09-15T11:06:50.241Z,27.32
2018-09-15T11:11:43.654Z,27.58
2018-09-15T11:16:36.830Z,27.68
2018-09-15T11:21:30.019Z,27.60
2018-09-15T11:26:23.357Z,27.61
2018-09-15T11:31:16.604Z,27.66
2018-09-15T11:36:09.668Z,27.69
2018-09-15T11:41:02.763Z,27.72
2018-09-15T11:45:56.292Z,27.66
2018-09-15T11:50:49.351Z,27.83
2018-09-15T11:55:42.595Z,27.77
2018-09-15T12:00:38.313Z,27.85
2018-09-15T12:05:31.427Z,27.86
2018-09-15T12:10:24.451Z,28.02
2018-09-15T12:15:17.655Z,27.97
2018-09-15T12:20:10.747Z,28.03
2018-09-15T12:25:03.958Z,27.98
2018-09-15T12:29:57.053Z,28.02
2018-09-15T12:34:50.223Z,27.96
2018-09-15T12:39:43.442Z,27.99
2018-09-15T12:44:36.668Z,28.07
2018-09-15T12:49:29.741Z,28.01
2018-09-15T12:54:22.945Z,27.92
2018-09-15T12:59:16.212Z,27.89
2018-09-15T13:04:09.311Z,28.00
2018-09-15T13:09:02.483Z,28.05
2018-09-15T13:13:55.689Z,28.02
2018-09-15T13:18:48.895Z,27.80
2018-09-15T13:23:42.069Z,27.86
2018-09-15T13:28:35.296Z,27.92
2018-09-15T13:33:28.396Z,27.85
2018-09-15T13:38:21.474Z,27.81
2018-09-15T13:43:14.644Z,27.87
2018-09-15T13:48:07.722Z,27.78
2018-09-15T13:53:00.741Z,27.91
2018-09-15T13:57:53.932Z,27.81
2018-09-15T14:02:47.069Z,27.86
2018-09-15T14:07:40.712Z,27.71
2018-09-15T14:12:33.958Z,27.78
2018-09-15T14:17:28.078Z,27.78
2018-09-15T14:22:21.605Z,27.59
2018-09-15T14:27:17.349Z,27.66
2018-09-15T14:32:10.523Z,27.53
2018-09-15T14:37:03.717Z,27.57
2018-09-15T14:41:56.904Z,27.56
2018-09-15T14:46:50.112Z,27.58
2018-09-15T14:51:43.205Z,27.48
2018-09-15T14:56:36.347Z,27.54
2018-09-15T15:01:29.576Z,27.41
2018-09-15T15:06:22.695Z,27.33
2018-09-15T15:11:16.081Z,27.31
2018-09-15T15:16:09.358Z,27.15
2018-09-15T15:21:02.859Z,27.15
2018-09-15T15:25:57.027Z,27.21
2018-09-15T15:30:50.188Z,27.30
2018-09-15T15:35:43.204Z,27.07
2018-09-15T15:40:37.381Z,27.00
2018-09-15T15:45:30.641Z,26.87
2018-09-15T15:50:23.852Z,26.72
2018-09-15T15:55:17.065Z,26.44
2018-09-15T16:00:10.177Z,26.41
2018-09-15T16:05:03.363Z,26.47
2018-09-15T16:09:56.488Z,26.33
2018-09-15T16:14:49.591Z,26.25
2018-09-15T16:19:42.793Z,26.08
2018-09-15T16:24:37.026Z,25.97
2018-09-15T16:29:32.937Z,25.53
2018-09-15T16:34:26.435Z,25.20
2018-09-15T16:39:21.242Z,25.21
2018-09-15T16:44:14.383Z,24.97
2018-09-15T16:49:07.939Z,24.75
2018-09-15T16:54:01.287Z,24.65
2018-09-15T16:58:54.369Z,24.65
2018-09-15T17:03:47.625Z,24.75
2018-09-15T17:08:41.019Z,24.65
2018-09-15T17:13:34.138Z,24.60
2018-09-15T17:18:28.839Z,24.59
2018-09-15T17:23:22.111Z,24.69
2018-09-15T17:28:15.383Z,24.69
2018-09-15T17:33:08.830Z,24.65
2018-09-15T17:38:01.898Z,24.73
2018-09-15T17:42:55.522Z,24.77
2018-09-15T17:47:48.704Z,24.75
2018-09-15T17:52:42.083Z,24.53
2018-09-15T17:57:35.637Z,24.59
2018-09-15T18:02:38.679Z,24.47
2018-09-15T18:07:32.463Z,24.59
2018-09-15T18:12:28.098Z,24.37
2018-09-15T18:17:25.350Z,24.21
2018-09-15T18:22:18.821Z,24.22
2018-09-15T18:27:13.250Z,24.32
2018-09-15T18:32:07.348Z,24.42
2018-09-15T18:37:03.278Z,24.43
2018-09-15T18:41:56.778Z,24.61
2018-09-15T18:46:50.942Z,24.39
2018-09-15T18:51:44.252Z,24.21
2018-09-15T18:56:38.886Z,24.04
2018-09-15T19:01:32.617Z,24.00
2018-09-15T19:06:27.584Z,23.85
2018-09-15T19:11:25.429Z,23.88
2018-09-15T19:16:21.296Z,23.87
2018-09-15T19:21:15.877Z,23.72
2018-09-15T19:26:09.968Z,23.72
2018-09-15T19:31:04.637Z,23.63
2018-09-15T19:35:58.377Z,23.53
2018-09-15T19:40:52.884Z,23.19
2018-09-15T19:45:46.743Z,23.12
2018-09-15T19:50:42.546Z,22.88
2018-09-15T19:55:36.495Z,22.80
2018-09-15T20:00:30.836Z,22.69
2018-09-15T20:05:24.745Z,22.55
2018-09-15T20:10:19.753Z,22.51
2018-09-15T20:15:20.923Z,22.76
2018-09-15T20:20:13.179Z,22.80
2018-09-15T20:25:06.527Z,23.00
2018-09-15T20:30:00.410Z,23.39
2018-09-15T20:34:55.265Z,23.91
2018-09-15T20:39:49.845Z,24.65
2018-09-15T20:44:43.788Z,24.82
2018-09-15T20:49:38.659Z,24.75
2018-09-15T20:54:32.465Z,24.74
2018-09-15T20:59:27.970Z,24.80
2018-09-15T21:04:21.580Z,24.70
2018-09-15T21:09:15.530Z,24.61
2018-09-15T21:14:11.711Z,24.63
2018-09-15T21:19:07.838Z,24.48
2018-09-15T21:24:03.191Z,24.33
2018-09-15T21:28:58.070Z,24.18
2018-09-15T21:33:57.587Z,24.12
2018-09-15T21:38:52.068Z,24.05
2018-09-15T21:43:45.737Z,24.04
2018-09-15T21:48:39.414Z,23.98
2018-09-15T21:53:34.995Z,24.00
2018-09-15T21:58:29.179Z,24.02
2018-09-15T22:03:24.648Z,23.98
2018-09-15T22:08:18.692Z,23.91
2018-09-15T22:13:13.238Z,23.80
2018-09-15T22:18:08.275Z,23.73
2018-09-15T22:23:02.511Z,23.67
2018-09-15T22:27:55.875Z,23.62
2018-09-15T22:32:49.829Z,23.62
2018-09-15T22:37:47.002Z,23.47
2018-09-15T22:42:41.315Z,23.53
2018-09-15T22:47:38.888Z,23.44
2018-09-15T22:52:32.588Z,23.38
2018-09-15T22:57:26.581Z,23.46
2018-09-15T23:02:21.725Z,23.38
2018-09-15T23:07:15.334Z,23.33
2018-09-15T23:12:12.327Z,23.32
2018-09-15T23:17:06.349Z,23.25
2018-09-15T23:22:00.712Z,23.24
2018-09-15T23:26:54.363Z,23.31
2018-09-15T23:31:48.207Z,23.24
2018-09-15T23:36:41.416Z,23.22
2018-09-15T23:41:35.331Z,23.22
2018-09-15T23:46:29.426Z,23.15
2018-09-15T23:51:22.950Z,23.03
2018-09-15T23:56:16.150Z,23.01
